sensor_id;sensor_type;location;lat;lon;timestamp;P1;durP1;ratioP1;P2;durP2;ratioP2
11125;SDS011;5617;54.046;10.676;2023-03-13T00:01:09;25.50;;;8.07;;
11125;SDS011;5617;54.046;10.676;2023-03-13T00:03:19;18.67;;;6.63;;
11125;SDS011;5617;54.046;10.676;2023-03-13T00:05:26;17.40;;;6.57;;
11125;SDS011;5617;54.046;10.676;2023-03-13T00:07:34;19.90;;;6.47;;
11125;SDS011;5617;54.046;10.676;2023-03-13T00:09:42;14.47;;;6.87;;
11125;SDS011;5617;54.046;10.676;2023-03-13T00:11:49;14.63;;;5.83;;
11125;SDS011;5617;54.046;10.676;2023-03-13T00:13:57;13.57;;;6.50;;
11125;SDS011;5617;54.046;10.676;2023-03-13T00:16:09;19.90;;;8.60;;
11125;SDS011;5617;54.046;10.676;2023-03-13T00:18:22;18.17;;;7.77;;
11125;SDS011;5617;54.046;10.676;2023-03-13T00:20:29;18.50;;;7.27;;
11125;SDS011;5617;54.046;10.676;2023-03-13T00:22:37;20.90;;;7.77;;
11125;SDS011;5617;54.046;10.676;2023-03-13T00:24:45;18.60;;;8.73;;
11125;SDS011;5617;54.046;10.676;2023-03-13T00:26:53;18.67;;;7.93;;
11125;SDS011;5617;54.046;10.676;2023-03-13T00:29:01;17.07;;;7.87;;
11125;SDS011;5617;54.046;10.676;2023-03-13T00:31:11;20.87;;;8.93;;
11125;SDS011;5617;54.046;10.676;2023-03-13T00:33:20;17.07;;;7.17;;
11125;SDS011;5617;54.046;10.676;2023-03-13T00:35:28;21.00;;;8.37;;
11125;SDS011;5617;54.046;10.676;2023-03-13T00:37:36;24.70;;;8.77;;
11125;SDS011;5617;54.046;10.676;2023-03-13T00:39:43;20.53;;;8.60;;
11125;SDS011;5617;54.046;10.676;2023-03-13T00:41:51;16.13;;;6.07;;
11125;SDS011;5617;54.046;10.676;2023-03-13T00:43:58;18.67;;;8.53;;
11125;SDS011;5617;54.046;10.676;2023-03-13T00:46:07;25.23;;;8.47;;
11125;SDS011;5617;54.046;10.676;2023-03-13T00:48:16;24.70;;;8.60;;
11125;SDS011;5617;54.046;10.676;2023-03-13T00:50:24;18.97;;;8.13;;
11125;SDS011;5617;54.046;10.676;2023-03-13T00:52:31;20.33;;;8.67;;
11125;SDS011;5617;54.046;10.676;2023-03-13T00:54:39;11.70;;;5.27;;
11125;SDS011;5617;54.046;10.676;2023-03-13T00:56:48;14.17;;;5.43;;
11125;SDS011;5617;54.046;10.676;2023-03-13T00:58:55;15.30;;;6.70;;
11125;SDS011;5617;54.046;10.676;2023-03-13T01:01:07;20.97;;;7.83;;
11125;SDS011;5617;54.046;10.676;2023-03-13T01:03:17;19.23;;;7.90;;
11125;SDS011;5617;54.046;10.676;2023-03-13T01:05:25;13.87;;;5.60;;
11125;SDS011;5617;54.046;10.676;2023-03-13T01:07:33;20.73;;;8.17;;
11125;SDS011;5617;54.046;10.676;2023-03-13T01:09:41;19.67;;;7.93;;
11125;SDS011;5617;54.046;10.676;2023-03-13T01:11:48;23.50;;;8.10;;
11125;SDS011;5617;54.046;10.676;2023-03-13T01:13:56;11.83;;;5.93;;
11125;SDS011;5617;54.046;10.676;2023-03-13T01:16:06;19.57;;;7.57;;
11125;SDS011;5617;54.046;10.676;2023-03-13T01:18:15;18.00;;;6.70;;
11125;SDS011;5617;54.046;10.676;2023-03-13T01:20:29;18.77;;;7.43;;
11125;SDS011;5617;54.046;10.676;2023-03-13T01:22:36;17.57;;;7.27;;
11125;SDS011;5617;54.046;10.676;2023-03-13T01:24:44;16.70;;;6.53;;
11125;SDS011;5617;54.046;10.676;2023-03-13T01:26:55;17.77;;;7.37;;
11125;SDS011;5617;54.046;10.676;2023-03-13T01:29:03;17.83;;;7.07;;
11125;SDS011;5617;54.046;10.676;2023-03-13T01:31:11;20.23;;;6.67;;
11125;SDS011;5617;54.046;10.676;2023-03-13T01:33:19;13.37;;;5.67;;
11125;SDS011;5617;54.046;10.676;2023-03-13T01:35:28;18.33;;;6.23;;
11125;SDS011;5617;54.046;10.676;2023-03-13T01:37:36;15.97;;;6.97;;
11125;SDS011;5617;54.046;10.676;2023-03-13T01:39:46;20.80;;;6.60;;
11125;SDS011;5617;54.046;10.676;2023-03-13T01:41:53;15.70;;;5.90;;
11125;SDS011;5617;54.046;10.676;2023-03-13T01:44:01;16.67;;;5.53;;
11125;SDS011;5617;54.046;10.676;2023-03-13T01:46:10;15.37;;;6.10;;
11125;SDS011;5617;54.046;10.676;2023-03-13T01:48:21;12.03;;;4.73;;
11125;SDS011;5617;54.046;10.676;2023-03-13T01:50:34;14.67;;;5.43;;
11125;SDS011;5617;54.046;10.676;2023-03-13T01:52:42;22.40;;;5.50;;
11125;SDS011;5617;54.046;10.676;2023-03-13T01:54:50;12.23;;;5.20;;
11125;SDS011;5617;54.046;10.676;2023-03-13T01:57:03;14.60;;;4.80;;
11125;SDS011;5617;54.046;10.676;2023-03-13T01:59:15;11.20;;;4.67;;
11125;SDS011;5617;54.046;10.676;2023-03-13T02:01:25;18.00;;;5.47;;
11125;SDS011;5617;54.046;10.676;2023-03-13T02:03:34;10.97;;;4.83;;
11125;SDS011;5617;54.046;10.676;2023-03-13T02:05:45;13.67;;;4.87;;
11125;SDS011;5617;54.046;10.676;2023-03-13T02:07:56;11.50;;;4.23;;
11125;SDS011;5617;54.046;10.676;2023-03-13T02:10:08;11.60;;;4.40;;
11125;SDS011;5617;54.046;10.676;2023-03-13T02:12:18;13.73;;;3.97;;
11125;SDS011;5617;54.046;10.676;2023-03-13T02:14:31;14.53;;;4.03;;
11125;SDS011;5617;54.046;10.676;2023-03-13T02:16:41;14.63;;;4.70;;
11125;SDS011;5617;54.046;10.676;2023-03-13T02:18:52;10.63;;;4.50;;
11125;SDS011;5617;54.046;10.676;2023-03-13T02:21:04;15.10;;;4.17;;
11125;SDS011;5617;54.046;10.676;2023-03-13T02:23:20;14.00;;;4.87;;
11125;SDS011;5617;54.046;10.676;2023-03-13T02:25:37;16.53;;;4.67;;
11125;SDS011;5617;54.046;10.676;2023-03-13T02:27:49;11.77;;;4.33;;
11125;SDS011;5617;54.046;10.676;2023-03-13T02:29:58;14.33;;;4.67;;
11125;SDS011;5617;54.046;10.676;2023-03-13T02:32:06;14.93;;;5.33;;
11125;SDS011;5617;54.046;10.676;2023-03-13T02:34:15;15.43;;;5.47;;
11125;SDS011;5617;54.046;10.676;2023-03-13T02:36:27;14.27;;;4.80;;
11125;SDS011;5617;54.046;10.676;2023-03-13T02:38:38;18.07;;;5.90;;
11125;SDS011;5617;54.046;10.676;2023-03-13T02:40:52;14.73;;;5.17;;
11125;SDS011;5617;54.046;10.676;2023-03-13T02:43:03;11.30;;;4.80;;
11125;SDS011;5617;54.046;10.676;2023-03-13T02:45:15;17.13;;;5.90;;
11125;SDS011;5617;54.046;10.676;2023-03-13T02:47:25;12.27;;;5.53;;
11125;SDS011;5617;54.046;10.676;2023-03-13T02:49:32;17.97;;;5.70;;
11125;SDS011;5617;54.046;10.676;2023-03-13T02:51:41;21.27;;;6.87;;
11125;SDS011;5617;54.046;10.676;2023-03-13T02:53:51;13.53;;;6.00;;
11125;SDS011;5617;54.046;10.676;2023-03-13T02:56:08;16.17;;;6.03;;
11125;SDS011;5617;54.046;10.676;2023-03-13T02:58:18;18.23;;;6.70;;
11125;SDS011;5617;54.046;10.676;2023-03-13T03:00:26;18.83;;;6.70;;
11125;SDS011;5617;54.046;10.676;2023-03-13T03:02:34;14.57;;;5.47;;
11125;SDS011;5617;54.046;10.676;2023-03-13T03:04:41;15.30;;;6.00;;
11125;SDS011;5617;54.046;10.676;2023-03-13T03:06:49;14.60;;;5.57;;
11125;SDS011;5617;54.046;10.676;2023-03-13T03:09:01;22.37;;;5.93;;
11125;SDS011;5617;54.046;10.676;2023-03-13T03:11:11;16.07;;;5.80;;
11125;SDS011;5617;54.046;10.676;2023-03-13T03:13:19;22.90;;;6.00;;
11125;SDS011;5617;54.046;10.676;2023-03-13T03:15:26;18.57;;;6.37;;
11125;SDS011;5617;54.046;10.676;2023-03-13T03:17:34;21.17;;;6.10;;
11125;SDS011;5617;54.046;10.676;2023-03-13T03:19:42;20.83;;;5.73;;
11125;SDS011;5617;54.046;10.676;2023-03-13T03:21:49;22.33;;;5.60;;
11125;SDS011;5617;54.046;10.676;2023-03-13T03:23:57;18.93;;;5.90;;
11125;SDS011;5617;54.046;10.676;2023-03-13T03:26:05;17.77;;;5.40;;
11125;SDS011;5617;54.046;10.676;2023-03-13T03:28:17;18.67;;;6.40;;
11125;SDS011;5617;54.046;10.676;2023-03-13T03:30:25;14.87;;;5.00;;
11125;SDS011;5617;54.046;10.676;2023-03-13T03:32:35;19.53;;;5.77;;
11125;SDS011;5617;54.046;10.676;2023-03-13T03:34:43;17.63;;;5.47;;
11125;SDS011;5617;54.046;10.676;2023-03-13T03:36:50;15.97;;;5.50;;
11125;SDS011;5617;54.046;10.676;2023-03-13T03:38:58;21.10;;;5.87;;
11125;SDS011;5617;54.046;10.676;2023-03-13T03:41:09;16.90;;;5.40;;
11125;SDS011;5617;54.046;10.676;2023-03-13T03:43:20;15.90;;;5.00;;
11125;SDS011;5617;54.046;10.676;2023-03-13T03:45:28;14.70;;;4.93;;
11125;SDS011;5617;54.046;10.676;2023-03-13T03:47:35;15.13;;;5.03;;
11125;SDS011;5617;54.046;10.676;2023-03-13T03:49:43;14.73;;;4.80;;
11125;SDS011;5617;54.046;10.676;2023-03-13T03:51:50;17.80;;;5.33;;
11125;SDS011;5617;54.046;10.676;2023-03-13T03:53:58;16.77;;;4.77;;
11125;SDS011;5617;54.046;10.676;2023-03-13T03:56:06;15.27;;;5.10;;
11125;SDS011;5617;54.046;10.676;2023-03-13T03:58:14;13.30;;;5.03;;
11125;SDS011;5617;54.046;10.676;2023-03-13T04:00:23;17.20;;;5.57;;
11125;SDS011;5617;54.046;10.676;2023-03-13T04:02:32;22.60;;;6.57;;
11125;SDS011;5617;54.046;10.676;2023-03-13T04:04:40;15.67;;;5.07;;
11125;SDS011;5617;54.046;10.676;2023-03-13T04:06:48;20.03;;;6.13;;
11125;SDS011;5617;54.046;10.676;2023-03-13T04:08:55;13.60;;;3.87;;
11125;SDS011;5617;54.046;10.676;2023-03-13T04:11:03;19.10;;;5.43;;
11125;SDS011;5617;54.046;10.676;2023-03-13T04:13:11;15.30;;;5.90;;
11125;SDS011;5617;54.046;10.676;2023-03-13T04:15:21;18.23;;;5.90;;
11125;SDS011;5617;54.046;10.676;2023-03-13T04:17:30;22.73;;;6.40;;
11125;SDS011;5617;54.046;10.676;2023-03-13T04:19:38;17.47;;;5.60;;
11125;SDS011;5617;54.046;10.676;2023-03-13T04:21:46;20.93;;;5.57;;
11125;SDS011;5617;54.046;10.676;2023-03-13T04:23:54;13.73;;;4.90;;
11125;SDS011;5617;54.046;10.676;2023-03-13T04:26:01;16.73;;;5.20;;
11125;SDS011;5617;54.046;10.676;2023-03-13T04:28:09;18.23;;;5.30;;
11125;SDS011;5617;54.046;10.676;2023-03-13T04:30:17;18.93;;;5.33;;
11125;SDS011;5617;54.046;10.676;2023-03-13T04:32:26;18.27;;;5.03;;
11125;SDS011;5617;54.046;10.676;2023-03-13T04:34:34;13.37;;;5.17;;
11125;SDS011;5617;54.046;10.676;2023-03-13T04:36:41;17.50;;;5.37;;
11125;SDS011;5617;54.046;10.676;2023-03-13T04:38:49;17.07;;;4.50;;
11125;SDS011;5617;54.046;10.676;2023-03-13T04:40:57;16.93;;;5.10;;
11125;SDS011;5617;54.046;10.676;2023-03-13T04:43:04;14.43;;;4.30;;
11125;SDS011;5617;54.046;10.676;2023-03-13T04:45:12;17.80;;;5.00;;
11125;SDS011;5617;54.046;10.676;2023-03-13T04:47:20;19.73;;;5.67;;
11125;SDS011;5617;54.046;10.676;2023-03-13T04:49:29;19.93;;;5.53;;
11125;SDS011;5617;54.046;10.676;2023-03-13T04:51:37;19.57;;;5.43;;
11125;SDS011;5617;54.046;10.676;2023-03-13T04:53:45;17.67;;;5.13;;
11125;SDS011;5617;54.046;10.676;2023-03-13T04:55:52;18.20;;;5.03;;
11125;SDS011;5617;54.046;10.676;2023-03-13T04:58:00;14.73;;;4.63;;
11125;SDS011;5617;54.046;10.676;2023-03-13T05:00:09;15.50;;;4.33;;
11125;SDS011;5617;54.046;10.676;2023-03-13T05:02:17;15.93;;;4.97;;
11125;SDS011;5617;54.046;10.676;2023-03-13T05:04:25;19.17;;;5.17;;
11125;SDS011;5617;54.046;10.676;2023-03-13T05:06:34;13.23;;;5.20;;
11125;SDS011;5617;54.046;10.676;2023-03-13T05:08:42;11.07;;;4.77;;
11125;SDS011;5617;54.046;10.676;2023-03-13T05:10:49;15.30;;;4.67;;
11125;SDS011;5617;54.046;10.676;2023-03-13T05:12:57;15.83;;;4.53;;
11125;SDS011;5617;54.046;10.676;2023-03-13T05:15:05;12.00;;;4.40;;
11125;SDS011;5617;54.046;10.676;2023-03-13T05:17:13;12.63;;;4.63;;
11125;SDS011;5617;54.046;10.676;2023-03-13T05:19:22;13.67;;;4.73;;
11125;SDS011;5617;54.046;10.676;2023-03-13T05:21:30;14.57;;;4.50;;
11125;SDS011;5617;54.046;10.676;2023-03-13T05:23:39;16.93;;;4.90;;
11125;SDS011;5617;54.046;10.676;2023-03-13T05:25:47;13.23;;;4.83;;
11125;SDS011;5617;54.046;10.676;2023-03-13T05:27:54;16.23;;;4.67;;
11125;SDS011;5617;54.046;10.676;2023-03-13T05:30:02;13.87;;;4.40;;
11125;SDS011;5617;54.046;10.676;2023-03-13T05:32:10;16.77;;;4.27;;
11125;SDS011;5617;54.046;10.676;2023-03-13T05:34:18;12.60;;;4.10;;
11125;SDS011;5617;54.046;10.676;2023-03-13T05:36:26;11.40;;;4.60;;
11125;SDS011;5617;54.046;10.676;2023-03-13T05:38:33;18.20;;;4.63;;
11125;SDS011;5617;54.046;10.676;2023-03-13T05:40:42;13.37;;;4.40;;
11125;SDS011;5617;54.046;10.676;2023-03-13T05:42:50;13.97;;;4.70;;
11125;SDS011;5617;54.046;10.676;2023-03-13T05:44:58;12.40;;;4.53;;
11125;SDS011;5617;54.046;10.676;2023-03-13T05:47:05;13.30;;;4.57;;
11125;SDS011;5617;54.046;10.676;2023-03-13T05:49:13;18.60;;;4.60;;
11125;SDS011;5617;54.046;10.676;2023-03-13T05:51:21;17.03;;;4.23;;
11125;SDS011;5617;54.046;10.676;2023-03-13T05:53:29;11.83;;;4.30;;
11125;SDS011;5617;54.046;10.676;2023-03-13T05:55:37;13.40;;;4.50;;
11125;SDS011;5617;54.046;10.676;2023-03-13T05:57:46;12.63;;;3.77;;
11125;SDS011;5617;54.046;10.676;2023-03-13T05:59:54;11.63;;;3.97;;
11125;SDS011;5617;54.046;10.676;2023-03-13T06:02:01;11.53;;;4.00;;
11125;SDS011;5617;54.046;10.676;2023-03-13T06:04:09;11.10;;;4.30;;
11125;SDS011;5617;54.046;10.676;2023-03-13T06:06:17;13.47;;;3.83;;
11125;SDS011;5617;54.046;10.676;2023-03-13T06:08:25;9.23;;;3.53;;
11125;SDS011;5617;54.046;10.676;2023-03-13T06:10:32;11.43;;;3.50;;
11125;SDS011;5617;54.046;10.676;2023-03-13T06:12:40;6.63;;;3.03;;
11125;SDS011;5617;54.046;10.676;2023-03-13T06:14:49;14.10;;;4.60;;
11125;SDS011;5617;54.046;10.676;2023-03-13T06:16:57;10.23;;;3.43;;
11125;SDS011;5617;54.046;10.676;2023-03-13T06:19:05;7.00;;;3.40;;
11125;SDS011;5617;54.046;10.676;2023-03-13T06:21:12;12.37;;;3.80;;
11125;SDS011;5617;54.046;10.676;2023-03-13T06:23:20;7.43;;;3.40;;
11125;SDS011;5617;54.046;10.676;2023-03-13T06:25:28;11.00;;;3.57;;
11125;SDS011;5617;54.046;10.676;2023-03-13T06:27:35;8.17;;;3.23;;
11125;SDS011;5617;54.046;10.676;2023-03-13T06:29:43;8.70;;;3.10;;
11125;SDS011;5617;54.046;10.676;2023-03-13T06:31:52;7.37;;;3.27;;
11125;SDS011;5617;54.046;10.676;2023-03-13T06:34:00;8.47;;;2.73;;
11125;SDS011;5617;54.046;10.676;2023-03-13T06:36:08;7.50;;;2.63;;
11125;SDS011;5617;54.046;10.676;2023-03-13T06:38:16;8.30;;;3.00;;
11125;SDS011;5617;54.046;10.676;2023-03-13T06:40:23;6.77;;;2.60;;
11125;SDS011;5617;54.046;10.676;2023-03-13T06:42:31;6.50;;;2.60;;
11125;SDS011;5617;54.046;10.676;2023-03-13T06:44:39;7.10;;;2.70;;
11125;SDS011;5617;54.046;10.676;2023-03-13T06:46:47;5.70;;;2.53;;
11125;SDS011;5617;54.046;10.676;2023-03-13T06:48:56;5.23;;;2.70;;
11125;SDS011;5617;54.046;10.676;2023-03-13T06:51:04;5.93;;;2.37;;
11125;SDS011;5617;54.046;10.676;2023-03-13T06:53:16;5.37;;;2.30;;
11125;SDS011;5617;54.046;10.676;2023-03-13T06:55:25;3.17;;;1.90;;
11125;SDS011;5617;54.046;10.676;2023-03-13T06:57:33;2.67;;;1.37;;
11125;SDS011;5617;54.046;10.676;2023-03-13T06:59:40;5.80;;;2.10;;
11125;SDS011;5617;54.046;10.676;2023-03-13T07:01:48;5.20;;;2.17;;
11125;SDS011;5617;54.046;10.676;2023-03-13T07:03:58;5.53;;;1.83;;
11125;SDS011;5617;54.046;10.676;2023-03-13T07:06:07;6.93;;;2.20;;
11125;SDS011;5617;54.046;10.676;2023-03-13T07:08:16;3.07;;;1.80;;
11125;SDS011;5617;54.046;10.676;2023-03-13T07:10:23;2.17;;;1.40;;
11125;SDS011;5617;54.046;10.676;2023-03-13T07:12:33;2.80;;;1.33;;
11125;SDS011;5617;54.046;10.676;2023-03-13T07:14:40;2.13;;;1.30;;
11125;SDS011;5617;54.046;10.676;2023-03-13T07:16:48;3.87;;;1.50;;
11125;SDS011;5617;54.046;10.676;2023-03-13T07:18:56;3.73;;;1.30;;
11125;SDS011;5617;54.046;10.676;2023-03-13T07:21:05;2.80;;;1.67;;
11125;SDS011;5617;54.046;10.676;2023-03-13T07:23:15;4.13;;;1.47;;
11125;SDS011;5617;54.046;10.676;2023-03-13T07:25:23;5.00;;;1.50;;
11125;SDS011;5617;54.046;10.676;2023-03-13T07:27:31;3.07;;;1.40;;
11125;SDS011;5617;54.046;10.676;2023-03-13T07:29:39;2.07;;;1.33;;
11125;SDS011;5617;54.046;10.676;2023-03-13T07:31:46;5.03;;;1.67;;
11125;SDS011;5617;54.046;10.676;2023-03-13T07:33:54;5.17;;;1.73;;
11125;SDS011;5617;54.046;10.676;2023-03-13T07:36:02;3.60;;;1.10;;
11125;SDS011;5617;54.046;10.676;2023-03-13T07:38:12;2.23;;;1.30;;
11125;SDS011;5617;54.046;10.676;2023-03-13T07:40:19;3.77;;;1.50;;
11125;SDS011;5617;54.046;10.676;2023-03-13T07:42:27;4.43;;;1.90;;
11125;SDS011;5617;54.046;10.676;2023-03-13T07:44:35;3.57;;;1.60;;
11125;SDS011;5617;54.046;10.676;2023-03-13T07:46:42;1.77;;;1.30;;
11125;SDS011;5617;54.046;10.676;2023-03-13T07:48:51;2.93;;;1.37;;
11125;SDS011;5617;54.046;10.676;2023-03-13T07:51:00;1.20;;;0.80;;
11125;SDS011;5617;54.046;10.676;2023-03-13T07:53:08;4.47;;;2.23;;
11125;SDS011;5617;54.046;10.676;2023-03-13T07:55:17;3.43;;;1.90;;
11125;SDS011;5617;54.046;10.676;2023-03-13T07:57:25;1.87;;;1.33;;
11125;SDS011;5617;54.046;10.676;2023-03-13T07:59:32;3.57;;;1.80;;
11125;SDS011;5617;54.046;10.676;2023-03-13T08:01:40;2.07;;;1.57;;
11125;SDS011;5617;54.046;10.676;2023-03-13T08:03:48;2.97;;;1.60;;
11125;SDS011;5617;54.046;10.676;2023-03-13T08:05:57;3.20;;;1.40;;
11125;SDS011;5617;54.046;10.676;2023-03-13T08:08:05;1.90;;;1.40;;
11125;SDS011;5617;54.046;10.676;2023-03-13T08:10:13;2.40;;;1.37;;
11125;SDS011;5617;54.046;10.676;2023-03-13T08:12:22;1.27;;;0.93;;
11125;SDS011;5617;54.046;10.676;2023-03-13T08:14:30;2.37;;;1.33;;
11125;SDS011;5617;54.046;10.676;2023-03-13T08:16:37;1.23;;;1.20;;
11125;SDS011;5617;54.046;10.676;2023-03-13T08:18:45;1.67;;;1.50;;
11125;SDS011;5617;54.046;10.676;2023-03-13T08:20:54;2.07;;;1.40;;
11125;SDS011;5617;54.046;10.676;2023-03-13T08:23:01;1.40;;;1.30;;
11125;SDS011;5617;54.046;10.676;2023-03-13T08:25:09;1.23;;;1.10;;
11125;SDS011;5617;54.046;10.676;2023-03-13T08:27:17;1.33;;;1.23;;
11125;SDS011;5617;54.046;10.676;2023-03-13T08:29:26;1.50;;;1.30;;
11125;SDS011;5617;54.046;10.676;2023-03-13T08:31:34;1.63;;;1.27;;
11125;SDS011;5617;54.046;10.676;2023-03-13T08:33:44;2.37;;;1.70;;
11125;SDS011;5617;54.046;10.676;2023-03-13T08:35:52;2.10;;;1.50;;
11125;SDS011;5617;54.046;10.676;2023-03-13T08:38:00;1.70;;;1.60;;
11125;SDS011;5617;54.046;10.676;2023-03-13T08:40:09;1.60;;;1.50;;
11125;SDS011;5617;54.046;10.676;2023-03-13T08:42:19;1.63;;;1.53;;
11125;SDS011;5617;54.046;10.676;2023-03-13T08:44:28;1.83;;;1.73;;
11125;SDS011;5617;54.046;10.676;2023-03-13T08:46:36;2.10;;;1.80;;
11125;SDS011;5617;54.046;10.676;2023-03-13T08:48:43;2.93;;;1.87;;
11125;SDS011;5617;54.046;10.676;2023-03-13T08:50:59;1.77;;;1.67;;
11125;SDS011;5617;54.046;10.676;2023-03-13T08:53:08;1.60;;;1.50;;
11125;SDS011;5617;54.046;10.676;2023-03-13T08:55:15;2.23;;;2.03;;
11125;SDS011;5617;54.046;10.676;2023-03-13T08:57:24;2.57;;;2.00;;
11125;SDS011;5617;54.046;10.676;2023-03-13T08:59:33;2.90;;;2.13;;
11125;SDS011;5617;54.046;10.676;2023-03-13T09:01:41;2.47;;;2.00;;
11125;SDS011;5617;54.046;10.676;2023-03-13T09:03:49;1.97;;;1.87;;
11125;SDS011;5617;54.046;10.676;2023-03-13T09:05:57;2.77;;;2.13;;
11125;SDS011;5617;54.046;10.676;2023-03-13T09:08:06;3.00;;;2.80;;
11125;SDS011;5617;54.046;10.676;2023-03-13T09:10:14;2.03;;;1.93;;
11125;SDS011;5617;54.046;10.676;2023-03-13T09:12:22;2.53;;;2.13;;
11125;SDS011;5617;54.046;10.676;2023-03-13T09:14:29;1.83;;;1.73;;
11125;SDS011;5617;54.046;10.676;2023-03-13T09:16:43;3.10;;;2.60;;
11125;SDS011;5617;54.046;10.676;2023-03-13T09:18:51;2.80;;;2.60;;
11125;SDS011;5617;54.046;10.676;2023-03-13T09:21:01;1.90;;;1.80;;
11125;SDS011;5617;54.046;10.676;2023-03-13T09:23:09;2.37;;;1.97;;
11125;SDS011;5617;54.046;10.676;2023-03-13T09:25:17;2.23;;;1.53;;
11125;SDS011;5617;54.046;10.676;2023-03-13T09:27:25;1.57;;;1.47;;
11125;SDS011;5617;54.046;10.676;2023-03-13T09:29:34;2.13;;;1.63;;
11125;SDS011;5617;54.046;10.676;2023-03-13T09:31:46;2.20;;;2.00;;
11125;SDS011;5617;54.046;10.676;2023-03-13T09:33:55;2.03;;;1.93;;
11125;SDS011;5617;54.046;10.676;2023-03-13T09:36:03;1.20;;;1.10;;
11125;SDS011;5617;54.046;10.676;2023-03-13T09:38:12;1.80;;;1.70;;
11125;SDS011;5617;54.046;10.676;2023-03-13T09:40:20;1.77;;;1.67;;
11125;SDS011;5617;54.046;10.676;2023-03-13T09:42:31;0.97;;;0.97;;
11125;SDS011;5617;54.046;10.676;2023-03-13T09:44:47;1.10;;;1.00;;
11125;SDS011;5617;54.046;10.676;2023-03-13T09:47:01;1.37;;;1.27;;
11125;SDS011;5617;54.046;10.676;2023-03-13T09:49:13;1.67;;;1.57;;
11125;SDS011;5617;54.046;10.676;2023-03-13T09:51:28;1.90;;;1.60;;
11125;SDS011;5617;54.046;10.676;2023-03-13T09:53:40;1.47;;;1.37;;
11125;SDS011;5617;54.046;10.676;2023-03-13T09:55:54;1.83;;;1.70;;
11125;SDS011;5617;54.046;10.676;2023-03-13T09:58:03;1.87;;;1.77;;
11125;SDS011;5617;54.046;10.676;2023-03-13T10:00:18;2.90;;;1.90;;
11125;SDS011;5617;54.046;10.676;2023-03-13T10:02:33;2.03;;;1.93;;
11125;SDS011;5617;54.046;10.676;2023-03-13T10:04:43;2.03;;;1.93;;
11125;SDS011;5617;54.046;10.676;2023-03-13T10:06:56;2.17;;;2.00;;
11125;SDS011;5617;54.046;10.676;2023-03-13T10:09:04;2.17;;;1.97;;
11125;SDS011;5617;54.046;10.676;2023-03-13T10:11:21;2.03;;;1.53;;
11125;SDS011;5617;54.046;10.676;2023-03-13T10:13:36;2.43;;;2.23;;
11125;SDS011;5617;54.046;10.676;2023-03-13T10:15:49;1.97;;;1.80;;
11125;SDS011;5617;54.046;10.676;2023-03-13T10:18:04;1.93;;;1.83;;
11125;SDS011;5617;54.046;10.676;2023-03-13T10:20:22;2.90;;;2.70;;
11125;SDS011;5617;54.046;10.676;2023-03-13T10:22:32;1.60;;;1.50;;
11125;SDS011;5617;54.046;10.676;2023-03-13T10:24:41;2.33;;;2.13;;
11125;SDS011;5617;54.046;10.676;2023-03-13T10:26:55;2.60;;;2.40;;
11125;SDS011;5617;54.046;10.676;2023-03-13T10:29:11;2.57;;;1.70;;
11125;SDS011;5617;54.046;10.676;2023-03-13T10:31:29;2.77;;;2.37;;
11125;SDS011;5617;54.046;10.676;2023-03-13T10:33:40;1.97;;;1.87;;
11125;SDS011;5617;54.046;10.676;2023-03-13T10:35:58;2.90;;;2.60;;
11125;SDS011;5617;54.046;10.676;2023-03-13T10:38:12;2.37;;;2.17;;
11125;SDS011;5617;54.046;10.676;2023-03-13T10:40:23;2.40;;;2.20;;
11125;SDS011;5617;54.046;10.676;2023-03-13T10:42:32;2.00;;;1.90;;
11125;SDS011;5617;54.046;10.676;2023-03-13T10:45:36;2.33;;;2.20;;
11125;SDS011;5617;54.046;10.676;2023-03-13T10:54:42;1.90;;;1.77;;
11125;SDS011;5617;54.046;10.676;2023-03-13T11:03:56;2.20;;;1.90;;
11125;SDS011;5617;54.046;10.676;2023-03-13T11:06:20;1.80;;;1.40;;
11125;SDS011;5617;54.046;10.676;2023-03-13T11:08:34;2.87;;;1.93;;
11125;SDS011;5617;54.046;10.676;2023-03-13T11:10:50;2.57;;;1.93;;
11125;SDS011;5617;54.046;10.676;2023-03-13T11:13:00;2.07;;;1.97;;
11125;SDS011;5617;54.046;10.676;2023-03-13T11:15:12;1.67;;;1.57;;
11125;SDS011;5617;54.046;10.676;2023-03-13T11:17:22;2.63;;;1.90;;
11125;SDS011;5617;54.046;10.676;2023-03-13T11:19:38;2.00;;;1.80;;
11125;SDS011;5617;54.046;10.676;2023-03-13T11:22:00;1.50;;;1.30;;
11125;SDS011;5617;54.046;10.676;2023-03-13T11:24:23;2.43;;;1.87;;
11125;SDS011;5617;54.046;10.676;2023-03-13T11:26:39;1.73;;;1.63;;
11125;SDS011;5617;54.046;10.676;2023-03-13T11:28:51;1.53;;;1.43;;
11125;SDS011;5617;54.046;10.676;2023-03-13T11:31:06;1.07;;;1.00;;
11125;SDS011;5617;54.046;10.676;2023-03-13T11:33:21;1.17;;;1.07;;
11125;SDS011;5617;54.046;10.676;2023-03-13T11:35:42;2.70;;;1.50;;
11125;SDS011;5617;54.046;10.676;2023-03-13T11:37:53;1.47;;;1.33;;
11125;SDS011;5617;54.046;10.676;2023-03-13T11:40:08;1.13;;;1.07;;
11125;SDS011;5617;54.046;10.676;2023-03-13T11:42:38;2.17;;;1.27;;
11125;SDS011;5617;54.046;10.676;2023-03-13T11:44:55;0.63;;;0.63;;
11125;SDS011;5617;54.046;10.676;2023-03-13T11:47:15;1.10;;;1.10;;
11125;SDS011;5617;54.046;10.676;2023-03-13T11:49:49;1.00;;;1.00;;
11125;SDS011;5617;54.046;10.676;2023-03-13T11:52:08;1.00;;;0.90;;
11125;SDS011;5617;54.046;10.676;2023-03-13T11:54:31;1.57;;;1.00;;
11125;SDS011;5617;54.046;10.676;2023-03-13T11:56:49;1.13;;;0.90;;
11125;SDS011;5617;54.046;10.676;2023-03-13T11:59:15;0.83;;;0.83;;
11125;SDS011;5617;54.046;10.676;2023-03-13T12:01:33;1.03;;;1.00;;
11125;SDS011;5617;54.046;10.676;2023-03-13T12:03:50;0.67;;;0.67;;
11125;SDS011;5617;54.046;10.676;2023-03-13T12:06:02;1.50;;;1.20;;
11125;SDS011;5617;54.046;10.676;2023-03-13T12:08:18;0.80;;;0.80;;
11125;SDS011;5617;54.046;10.676;2023-03-13T12:10:39;0.70;;;0.67;;
11125;SDS011;5617;54.046;10.676;2023-03-13T12:12:58;1.50;;;0.97;;
11125;SDS011;5617;54.046;10.676;2023-03-13T12:15:18;0.70;;;0.70;;
11125;SDS011;5617;54.046;10.676;2023-03-13T12:19:44;1.23;;;0.77;;
11125;SDS011;5617;54.046;10.676;2023-03-13T12:23:58;2.57;;;0.90;;
11125;SDS011;5617;54.046;10.676;2023-03-13T12:26:11;1.20;;;0.93;;
11125;SDS011;5617;54.046;10.676;2023-03-13T12:28:28;1.00;;;1.00;;
11125;SDS011;5617;54.046;10.676;2023-03-13T12:30:41;1.17;;;0.97;;
11125;SDS011;5617;54.046;10.676;2023-03-13T12:32:53;3.30;;;0.83;;
11125;SDS011;5617;54.046;10.676;2023-03-13T12:35:06;1.00;;;0.90;;
11125;SDS011;5617;54.046;10.676;2023-03-13T12:37:23;1.70;;;1.00;;
11125;SDS011;5617;54.046;10.676;2023-03-13T12:39:38;1.00;;;0.90;;
11125;SDS011;5617;54.046;10.676;2023-03-13T12:41:49;1.43;;;1.10;;
11125;SDS011;5617;54.046;10.676;2023-03-13T12:44:36;3.43;;;1.30;;
11125;SDS011;5617;54.046;10.676;2023-03-13T12:46:57;0.70;;;0.70;;
11125;SDS011;5617;54.046;10.676;2023-03-13T12:49:33;1.47;;;0.90;;
11125;SDS011;5617;54.046;10.676;2023-03-13T12:52:16;1.17;;;0.80;;
11125;SDS011;5617;54.046;10.676;2023-03-13T12:54:40;1.10;;;1.00;;
11125;SDS011;5617;54.046;10.676;2023-03-13T12:57:03;1.07;;;0.97;;
11125;SDS011;5617;54.046;10.676;2023-03-13T12:59:25;2.27;;;1.57;;
11125;SDS011;5617;54.046;10.676;2023-03-13T13:01:38;0.90;;;0.80;;
11125;SDS011;5617;54.046;10.676;2023-03-13T13:03:50;0.97;;;0.90;;
11125;SDS011;5617;54.046;10.676;2023-03-13T13:06:02;1.20;;;0.63;;
11125;SDS011;5617;54.046;10.676;2023-03-13T13:08:20;1.33;;;0.67;;
11125;SDS011;5617;54.046;10.676;2023-03-13T13:10:31;0.50;;;0.50;;
11125;SDS011;5617;54.046;10.676;2023-03-13T13:12:40;1.50;;;0.80;;
11125;SDS011;5617;54.046;10.676;2023-03-13T13:14:54;1.17;;;0.90;;
11125;SDS011;5617;54.046;10.676;2023-03-13T13:17:13;1.47;;;0.73;;
11125;SDS011;5617;54.046;10.676;2023-03-13T13:19:43;1.27;;;0.77;;